Terminal Aerodrome Forecast
Issued by NWS

Home | Current Version | Previous Version | Text Only | Print | Product List | Glossary On
Versions: 1 2 3 4 5 6 7 8 9 10 11 12 13 14 15 16
000
FTUS45 KRIW 050534
TAFCPR
TAF
KCPR 050534Z 0506/0606 VRB06KT P6SM SCT110
     FM051200 22011KT P6SM SCT120
     FM052000 36014G20KT P6SM VCTS SCT040CB BKN080
     FM060200 01013KT P6SM -RA SCT009 OVC015=

USA.gov is the U.S. government's official web portal to all federal, state and local government web resources and services.